sensor_id;sensor_type;location;lat;lon;timestamp;P1;durP1;ratioP1;P2;durP2;ratioP2
41903;SDS011;27586;51.124;4.182;2023-05-10T00:02:06;8.70;;;6.78;;
41903;SDS011;27586;51.124;4.182;2023-05-10T00:04:32;8.32;;;6.35;;
41903;SDS011;27586;51.124;4.182;2023-05-10T00:06:58;11.65;;;7.60;;
41903;SDS011;27586;51.124;4.182;2023-05-10T00:09:23;8.45;;;6.82;;
41903;SDS011;27586;51.124;4.182;2023-05-10T00:11:49;9.35;;;6.88;;
41903;SDS011;27586;51.124;4.182;2023-05-10T00:14:15;11.32;;;6.63;;
41903;SDS011;27586;51.124;4.182;2023-05-10T00:16:41;12.80;;;7.93;;
41903;SDS011;27586;51.124;4.182;2023-05-10T00:19:06;11.10;;;7.65;;
41903;SDS011;27586;51.124;4.182;2023-05-10T00:21:32;11.10;;;7.50;;
41903;SDS011;27586;51.124;4.182;2023-05-10T00:23:58;9.75;;;7.55;;
41903;SDS011;27586;51.124;4.182;2023-05-10T00:26:24;10.75;;;7.75;;
41903;SDS011;27586;51.124;4.182;2023-05-10T00:28:50;12.55;;;9.15;;
41903;SDS011;27586;51.124;4.182;2023-05-10T00:31:38;13.32;;;8.88;;
41903;SDS011;27586;51.124;4.182;2023-05-10T00:34:04;14.48;;;9.63;;
41903;SDS011;27586;51.124;4.182;2023-05-10T00:36:29;21.55;;;10.13;;
41903;SDS011;27586;51.124;4.182;2023-05-10T00:38:56;13.07;;;9.43;;
41903;SDS011;27586;51.124;4.182;2023-05-10T00:41:21;17.73;;;13.05;;
41903;SDS011;27586;51.124;4.182;2023-05-10T00:43:47;20.88;;;12.77;;
41903;SDS011;27586;51.124;4.182;2023-05-10T00:46:14;16.05;;;10.23;;
41903;SDS011;27586;51.124;4.182;2023-05-10T00:48:40;17.15;;;11.25;;
41903;SDS011;27586;51.124;4.182;2023-05-10T00:51:05;16.38;;;11.45;;
41903;SDS011;27586;51.124;4.182;2023-05-10T00:53:31;16.83;;;11.38;;
41903;SDS011;27586;51.124;4.182;2023-05-10T00:55:58;16.55;;;11.43;;
41903;SDS011;27586;51.124;4.182;2023-05-10T00:58:24;21.05;;;12.35;;
41903;SDS011;27586;51.124;4.182;2023-05-10T01:00:53;17.67;;;12.98;;
41903;SDS011;27586;51.124;4.182;2023-05-10T01:03:21;19.73;;;12.20;;
41903;SDS011;27586;51.124;4.182;2023-05-10T01:05:46;19.13;;;13.05;;
41903;SDS011;27586;51.124;4.182;2023-05-10T01:08:12;20.70;;;13.02;;
41903;SDS011;27586;51.124;4.182;2023-05-10T01:10:38;18.58;;;12.32;;
41903;SDS011;27586;51.124;4.182;2023-05-10T01:13:03;16.80;;;12.75;;
41903;SDS011;27586;51.124;4.182;2023-05-10T01:15:29;20.90;;;12.95;;
41903;SDS011;27586;51.124;4.182;2023-05-10T01:17:56;21.70;;;13.25;;
41903;SDS011;27586;51.124;4.182;2023-05-10T01:20:21;19.00;;;13.15;;
41903;SDS011;27586;51.124;4.182;2023-05-10T01:25:43;17.25;;;12.45;;
41903;SDS011;27586;51.124;4.182;2023-05-10T01:34:16;19.85;;;13.32;;
41903;SDS011;27586;51.124;4.182;2023-05-10T01:36:55;19.73;;;12.80;;
41903;SDS011;27586;51.124;4.182;2023-05-10T01:39:47;21.10;;;13.73;;
41903;SDS011;27586;51.124;4.182;2023-05-10T01:42:21;17.92;;;12.63;;
41903;SDS011;27586;51.124;4.182;2023-05-10T01:48:01;21.08;;;14.52;;
41903;SDS011;27586;51.124;4.182;2023-05-10T01:50:30;20.13;;;13.95;;
41903;SDS011;27586;51.124;4.182;2023-05-10T01:52:57;18.88;;;14.18;;
41903;SDS011;27586;51.124;4.182;2023-05-10T01:55:26;21.08;;;14.93;;
41903;SDS011;27586;51.124;4.182;2023-05-10T01:57:58;23.52;;;15.20;;
41903;SDS011;27586;51.124;4.182;2023-05-10T02:00:34;21.17;;;16.00;;
41903;SDS011;27586;51.124;4.182;2023-05-10T02:03:01;20.63;;;15.18;;
41903;SDS011;27586;51.124;4.182;2023-05-10T02:05:30;28.23;;;16.67;;
41903;SDS011;27586;51.124;4.182;2023-05-10T02:07:58;23.25;;;17.27;;
41903;SDS011;27586;51.124;4.182;2023-05-10T02:10:26;22.98;;;16.80;;
41903;SDS011;27586;51.124;4.182;2023-05-10T02:12:53;24.10;;;16.20;;
41903;SDS011;27586;51.124;4.182;2023-05-10T02:15:23;28.23;;;18.48;;
41903;SDS011;27586;51.124;4.182;2023-05-10T02:17:51;23.40;;;17.27;;
41903;SDS011;27586;51.124;4.182;2023-05-10T02:20:19;23.88;;;17.45;;
41903;SDS011;27586;51.124;4.182;2023-05-10T02:22:47;22.98;;;16.55;;
41903;SDS011;27586;51.124;4.182;2023-05-10T02:25:15;21.52;;;17.27;;
41903;SDS011;27586;51.124;4.182;2023-05-10T02:27:42;26.67;;;19.02;;
41903;SDS011;27586;51.124;4.182;2023-05-10T02:30:09;28.40;;;19.33;;
41903;SDS011;27586;51.124;4.182;2023-05-10T02:32:36;30.90;;;20.15;;
41903;SDS011;27586;51.124;4.182;2023-05-10T02:35:02;26.58;;;19.70;;
41903;SDS011;27586;51.124;4.182;2023-05-10T02:37:29;28.55;;;19.70;;
41903;SDS011;27586;51.124;4.182;2023-05-10T02:39:55;29.48;;;19.77;;
41903;SDS011;27586;51.124;4.182;2023-05-10T02:42:27;30.95;;;20.10;;
41903;SDS011;27586;51.124;4.182;2023-05-10T02:44:59;28.83;;;20.40;;
41903;SDS011;27586;51.124;4.182;2023-05-10T02:47:27;29.23;;;20.33;;
41903;SDS011;27586;51.124;4.182;2023-05-10T02:49:54;29.08;;;20.10;;
41903;SDS011;27586;51.124;4.182;2023-05-10T02:52:24;30.15;;;20.63;;
41903;SDS011;27586;51.124;4.182;2023-05-10T02:54:55;26.92;;;20.35;;
41903;SDS011;27586;51.124;4.182;2023-05-10T02:57:26;29.98;;;20.80;;
41903;SDS011;27586;51.124;4.182;2023-05-10T02:59:54;28.58;;;20.38;;
41903;SDS011;27586;51.124;4.182;2023-05-10T03:02:20;34.13;;;22.52;;
41903;SDS011;27586;51.124;4.182;2023-05-10T03:04:46;35.17;;;23.77;;
41903;SDS011;27586;51.124;4.182;2023-05-10T03:07:12;32.92;;;23.20;;
41903;SDS011;27586;51.124;4.182;2023-05-10T03:09:38;34.85;;;22.30;;
41903;SDS011;27586;51.124;4.182;2023-05-10T03:12:11;35.03;;;25.17;;
41903;SDS011;27586;51.124;4.182;2023-05-10T03:15:42;36.58;;;26.02;;
41903;SDS011;27586;51.124;4.182;2023-05-10T03:18:01;40.85;;;25.33;;
41903;SDS011;27586;51.124;4.182;2023-05-10T03:20:47;42.33;;;26.10;;
41903;SDS011;27586;51.124;4.182;2023-05-10T03:23:22;38.47;;;24.40;;
41903;SDS011;27586;51.124;4.182;2023-05-10T03:25:55;38.67;;;24.10;;
41903;SDS011;27586;51.124;4.182;2023-05-10T03:28:21;41.65;;;25.73;;
41903;SDS011;27586;51.124;4.182;2023-05-10T03:30:49;37.60;;;24.27;;
41903;SDS011;27586;51.124;4.182;2023-05-10T03:33:17;39.17;;;24.98;;
41903;SDS011;27586;51.124;4.182;2023-05-10T03:35:43;43.67;;;27.08;;
41903;SDS011;27586;51.124;4.182;2023-05-10T03:38:10;51.35;;;32.45;;
41903;SDS011;27586;51.124;4.182;2023-05-10T03:40:37;55.30;;;34.15;;
41903;SDS011;27586;51.124;4.182;2023-05-10T03:43:03;55.97;;;33.95;;
41903;SDS011;27586;51.124;4.182;2023-05-10T03:45:29;63.67;;;35.30;;
41903;SDS011;27586;51.124;4.182;2023-05-10T03:47:55;58.67;;;36.65;;
41903;SDS011;27586;51.124;4.182;2023-05-10T03:50:22;81.90;;;36.75;;
41903;SDS011;27586;51.124;4.182;2023-05-10T03:52:48;60.65;;;36.17;;
41903;SDS011;27586;51.124;4.182;2023-05-10T03:55:13;57.15;;;35.22;;
41903;SDS011;27586;51.124;4.182;2023-05-10T03:57:39;55.10;;;33.17;;
41903;SDS011;27586;51.124;4.182;2023-05-10T04:00:05;56.78;;;33.92;;
41903;SDS011;27586;51.124;4.182;2023-05-10T04:02:31;52.55;;;33.33;;
41903;SDS011;27586;51.124;4.182;2023-05-10T04:04:56;50.65;;;33.17;;
41903;SDS011;27586;51.124;4.182;2023-05-10T04:07:22;48.72;;;33.25;;
41903;SDS011;27586;51.124;4.182;2023-05-10T04:09:49;54.45;;;33.40;;
41903;SDS011;27586;51.124;4.182;2023-05-10T04:12:14;65.05;;;35.15;;
41903;SDS011;27586;51.124;4.182;2023-05-10T04:14:40;59.10;;;38.28;;
41903;SDS011;27586;51.124;4.182;2023-05-10T04:17:05;59.17;;;39.75;;
41903;SDS011;27586;51.124;4.182;2023-05-10T04:19:31;60.38;;;40.55;;
41903;SDS011;27586;51.124;4.182;2023-05-10T04:21:57;58.85;;;39.60;;
41903;SDS011;27586;51.124;4.182;2023-05-10T04:24:23;61.13;;;38.78;;
41903;SDS011;27586;51.124;4.182;2023-05-10T04:26:49;54.38;;;36.20;;
41903;SDS011;27586;51.124;4.182;2023-05-10T04:29:15;51.88;;;34.90;;
41903;SDS011;27586;51.124;4.182;2023-05-10T04:31:41;48.00;;;32.90;;
41903;SDS011;27586;51.124;4.182;2023-05-10T04:34:06;46.25;;;32.17;;
41903;SDS011;27586;51.124;4.182;2023-05-10T04:36:32;45.83;;;31.02;;
41903;SDS011;27586;51.124;4.182;2023-05-10T04:39:00;46.50;;;32.58;;
41903;SDS011;27586;51.124;4.182;2023-05-10T04:41:27;39.85;;;28.35;;
41903;SDS011;27586;51.124;4.182;2023-05-10T04:43:53;43.72;;;29.15;;
41903;SDS011;27586;51.124;4.182;2023-05-10T04:46:19;43.45;;;28.63;;
41903;SDS011;27586;51.124;4.182;2023-05-10T04:48:45;42.83;;;28.48;;
41903;SDS011;27586;51.124;4.182;2023-05-10T04:51:10;38.50;;;27.05;;
41903;SDS011;27586;51.124;4.182;2023-05-10T04:53:37;39.03;;;27.55;;
41903;SDS011;27586;51.124;4.182;2023-05-10T04:56:02;40.13;;;26.58;;
41903;SDS011;27586;51.124;4.182;2023-05-10T04:58:28;38.35;;;26.33;;
41903;SDS011;27586;51.124;4.182;2023-05-10T05:00:54;39.97;;;27.55;;
41903;SDS011;27586;51.124;4.182;2023-05-10T05:03:19;36.83;;;26.27;;
41903;SDS011;27586;51.124;4.182;2023-05-10T05:05:45;38.70;;;28.55;;
41903;SDS011;27586;51.124;4.182;2023-05-10T05:08:11;44.65;;;30.80;;
41903;SDS011;27586;51.124;4.182;2023-05-10T05:10:36;43.63;;;31.70;;
41903;SDS011;27586;51.124;4.182;2023-05-10T05:13:02;41.35;;;30.20;;
41903;SDS011;27586;51.124;4.182;2023-05-10T05:15:28;43.53;;;31.50;;
41903;SDS011;27586;51.124;4.182;2023-05-10T05:17:54;39.08;;;29.45;;
41903;SDS011;27586;51.124;4.182;2023-05-10T05:20:20;46.08;;;31.05;;
41903;SDS011;27586;51.124;4.182;2023-05-10T05:22:46;40.15;;;28.58;;
41903;SDS011;27586;51.124;4.182;2023-05-10T05:25:11;40.08;;;28.95;;
41903;SDS011;27586;51.124;4.182;2023-05-10T05:27:37;41.50;;;30.45;;
41903;SDS011;27586;51.124;4.182;2023-05-10T05:30:03;35.00;;;26.92;;
41903;SDS011;27586;51.124;4.182;2023-05-10T05:32:29;34.28;;;27.08;;
41903;SDS011;27586;51.124;4.182;2023-05-10T05:34:55;39.15;;;27.25;;
41903;SDS011;27586;51.124;4.182;2023-05-10T05:37:21;38.72;;;26.88;;
41903;SDS011;27586;51.124;4.182;2023-05-10T05:39:47;34.75;;;25.88;;
41903;SDS011;27586;51.124;4.182;2023-05-10T05:42:13;36.08;;;27.20;;
41903;SDS011;27586;51.124;4.182;2023-05-10T05:44:41;38.05;;;27.85;;
41903;SDS011;27586;51.124;4.182;2023-05-10T05:47:07;38.67;;;27.42;;
41903;SDS011;27586;51.124;4.182;2023-05-10T05:49:32;34.97;;;25.88;;
41903;SDS011;27586;51.124;4.182;2023-05-10T05:51:58;36.58;;;27.40;;
41903;SDS011;27586;51.124;4.182;2023-05-10T05:54:25;36.08;;;26.23;;
41903;SDS011;27586;51.124;4.182;2023-05-10T05:56:53;36.90;;;28.20;;
41903;SDS011;27586;51.124;4.182;2023-05-10T05:59:20;34.92;;;26.67;;
41903;SDS011;27586;51.124;4.182;2023-05-10T06:01:46;33.05;;;26.55;;
41903;SDS011;27586;51.124;4.182;2023-05-10T06:04:12;37.90;;;26.52;;
41903;SDS011;27586;51.124;4.182;2023-05-10T06:06:38;32.45;;;25.83;;
41903;SDS011;27586;51.124;4.182;2023-05-10T06:09:03;35.35;;;27.15;;
41903;SDS011;27586;51.124;4.182;2023-05-10T06:11:29;32.58;;;26.40;;
41903;SDS011;27586;51.124;4.182;2023-05-10T06:13:57;34.97;;;28.02;;
41903;SDS011;27586;51.124;4.182;2023-05-10T06:16:23;30.30;;;25.52;;
41903;SDS011;27586;51.124;4.182;2023-05-10T06:18:48;33.90;;;26.10;;
41903;SDS011;27586;51.124;4.182;2023-05-10T06:21:14;37.78;;;26.60;;
41903;SDS011;27586;51.124;4.182;2023-05-10T06:23:41;34.25;;;26.52;;
41903;SDS011;27586;51.124;4.182;2023-05-10T06:26:07;34.67;;;25.20;;
41903;SDS011;27586;51.124;4.182;2023-05-10T06:28:32;29.77;;;24.02;;
41903;SDS011;27586;51.124;4.182;2023-05-10T06:30:58;31.65;;;23.00;;
41903;SDS011;27586;51.124;4.182;2023-05-10T06:33:24;29.83;;;22.55;;
41903;SDS011;27586;51.124;4.182;2023-05-10T06:35:50;28.63;;;22.50;;
41903;SDS011;27586;51.124;4.182;2023-05-10T06:38:16;28.38;;;22.58;;
41903;SDS011;27586;51.124;4.182;2023-05-10T06:40:42;26.90;;;20.80;;
41903;SDS011;27586;51.124;4.182;2023-05-10T06:43:08;26.15;;;21.20;;
41903;SDS011;27586;51.124;4.182;2023-05-10T06:45:34;23.10;;;20.02;;
41903;SDS011;27586;51.124;4.182;2023-05-10T06:48:00;24.98;;;19.90;;
41903;SDS011;27586;51.124;4.182;2023-05-10T06:50:26;23.25;;;18.20;;
41903;SDS011;27586;51.124;4.182;2023-05-10T06:52:52;23.80;;;18.77;;
41903;SDS011;27586;51.124;4.182;2023-05-10T06:55:18;23.00;;;19.08;;
41903;SDS011;27586;51.124;4.182;2023-05-10T06:57:43;23.00;;;18.60;;
41903;SDS011;27586;51.124;4.182;2023-05-10T07:00:09;23.83;;;18.50;;
41903;SDS011;27586;51.124;4.182;2023-05-10T07:02:35;21.52;;;17.73;;
41903;SDS011;27586;51.124;4.182;2023-05-10T07:05:01;21.88;;;18.95;;
41903;SDS011;27586;51.124;4.182;2023-05-10T07:07:27;22.58;;;18.55;;
41903;SDS011;27586;51.124;4.182;2023-05-10T07:09:53;24.40;;;18.90;;
41903;SDS011;27586;51.124;4.182;2023-05-10T07:12:18;21.75;;;18.58;;
41903;SDS011;27586;51.124;4.182;2023-05-10T07:14:44;21.75;;;18.00;;
41903;SDS011;27586;51.124;4.182;2023-05-10T07:17:10;21.73;;;18.23;;
41903;SDS011;27586;51.124;4.182;2023-05-10T07:19:36;23.40;;;18.80;;
41903;SDS011;27586;51.124;4.182;2023-05-10T07:22:02;22.92;;;19.50;;
41903;SDS011;27586;51.124;4.182;2023-05-10T07:24:27;28.30;;;19.75;;
41903;SDS011;27586;51.124;4.182;2023-05-10T07:26:53;23.30;;;20.40;;
41903;SDS011;27586;51.124;4.182;2023-05-10T07:29:19;23.77;;;19.35;;
41903;SDS011;27586;51.124;4.182;2023-05-10T07:31:44;23.65;;;20.23;;
41903;SDS011;27586;51.124;4.182;2023-05-10T07:34:10;22.77;;;18.38;;
41903;SDS011;27586;51.124;4.182;2023-05-10T07:36:35;24.13;;;19.60;;
41903;SDS011;27586;51.124;4.182;2023-05-10T07:39:01;26.15;;;19.90;;
41903;SDS011;27586;51.124;4.182;2023-05-10T07:41:27;23.40;;;19.63;;
41903;SDS011;27586;51.124;4.182;2023-05-10T07:43:53;22.35;;;19.95;;
41903;SDS011;27586;51.124;4.182;2023-05-10T07:46:18;24.23;;;20.08;;
41903;SDS011;27586;51.124;4.182;2023-05-10T07:48:47;21.70;;;18.33;;
41903;SDS011;27586;51.124;4.182;2023-05-10T07:51:12;21.77;;;18.40;;
41903;SDS011;27586;51.124;4.182;2023-05-10T07:53:38;25.10;;;18.27;;
41903;SDS011;27586;51.124;4.182;2023-05-10T07:56:24;17.75;;;15.82;;
41903;SDS011;27586;51.124;4.182;2023-05-10T07:58:57;17.45;;;15.43;;
41903;SDS011;27586;51.124;4.182;2023-05-10T08:01:24;17.88;;;15.30;;
41903;SDS011;27586;51.124;4.182;2023-05-10T08:03:50;17.83;;;14.98;;
41903;SDS011;27586;51.124;4.182;2023-05-10T08:06:18;18.08;;;14.25;;
41903;SDS011;27586;51.124;4.182;2023-05-10T08:08:45;22.05;;;16.27;;
41903;SDS011;27586;51.124;4.182;2023-05-10T08:11:14;23.63;;;19.60;;
41903;SDS011;27586;51.124;4.182;2023-05-10T08:13:41;25.67;;;20.50;;
41903;SDS011;27586;51.124;4.182;2023-05-10T08:16:07;34.22;;;25.88;;
41903;SDS011;27586;51.124;4.182;2023-05-10T08:18:32;36.47;;;27.15;;
41903;SDS011;27586;51.124;4.182;2023-05-10T08:20:58;33.42;;;25.77;;
41903;SDS011;27586;51.124;4.182;2023-05-10T08:23:23;24.50;;;20.33;;
41903;SDS011;27586;51.124;4.182;2023-05-10T08:25:49;22.20;;;17.73;;
41903;SDS011;27586;51.124;4.182;2023-05-10T08:28:15;20.02;;;15.52;;
41903;SDS011;27586;51.124;4.182;2023-05-10T08:30:40;18.00;;;13.30;;
41903;SDS011;27586;51.124;4.182;2023-05-10T08:33:06;17.58;;;15.07;;
41903;SDS011;27586;51.124;4.182;2023-05-10T08:35:32;16.55;;;13.25;;
41903;SDS011;27586;51.124;4.182;2023-05-10T08:37:59;14.23;;;12.65;;
41903;SDS011;27586;51.124;4.182;2023-05-10T08:40:24;17.20;;;13.65;;
41903;SDS011;27586;51.124;4.182;2023-05-10T08:42:55;16.95;;;15.15;;
41903;SDS011;27586;51.124;4.182;2023-05-10T08:45:25;18.58;;;15.48;;
41903;SDS011;27586;51.124;4.182;2023-05-10T08:47:56;19.92;;;16.52;;
41903;SDS011;27586;51.124;4.182;2023-05-10T08:50:21;22.50;;;16.30;;
41903;SDS011;27586;51.124;4.182;2023-05-10T08:52:48;26.25;;;17.35;;
41903;SDS011;27586;51.124;4.182;2023-05-10T08:55:20;25.88;;;17.77;;
41903;SDS011;27586;51.124;4.182;2023-05-10T08:57:48;21.73;;;16.65;;
41903;SDS011;27586;51.124;4.182;2023-05-10T09:00:14;23.42;;;18.23;;
41903;SDS011;27586;51.124;4.182;2023-05-10T09:02:40;24.83;;;17.02;;
41903;SDS011;27586;51.124;4.182;2023-05-10T09:05:08;24.15;;;17.25;;
41903;SDS011;27586;51.124;4.182;2023-05-10T09:07:34;26.02;;;17.77;;
41903;SDS011;27586;51.124;4.182;2023-05-10T09:10:00;26.27;;;18.50;;
41903;SDS011;27586;51.124;4.182;2023-05-10T09:12:26;26.05;;;18.52;;
41903;SDS011;27586;51.124;4.182;2023-05-10T09:14:52;26.02;;;18.15;;
41903;SDS011;27586;51.124;4.182;2023-05-10T09:17:20;26.30;;;18.40;;
41903;SDS011;27586;51.124;4.182;2023-05-10T09:19:48;26.05;;;18.08;;
41903;SDS011;27586;51.124;4.182;2023-05-10T09:22:13;25.45;;;18.15;;
41903;SDS011;27586;51.124;4.182;2023-05-10T09:24:39;29.60;;;18.75;;
41903;SDS011;27586;51.124;4.182;2023-05-10T09:27:10;27.27;;;18.67;;
41903;SDS011;27586;51.124;4.182;2023-05-10T09:29:39;27.35;;;18.38;;
41903;SDS011;27586;51.124;4.182;2023-05-10T09:32:05;24.15;;;16.80;;
41903;SDS011;27586;51.124;4.182;2023-05-10T09:34:31;28.17;;;17.48;;
41903;SDS011;27586;51.124;4.182;2023-05-10T09:36:59;28.40;;;18.52;;
41903;SDS011;27586;51.124;4.182;2023-05-10T09:39:59;22.45;;;16.77;;
41903;SDS011;27586;51.124;4.182;2023-05-10T09:42:19;27.98;;;16.00;;
41903;SDS011;27586;51.124;4.182;2023-05-10T09:44:44;24.73;;;15.68;;
41903;SDS011;27586;51.124;4.182;2023-05-10T09:47:11;18.08;;;14.77;;
41903;SDS011;27586;51.124;4.182;2023-05-10T09:49:43;27.02;;;16.13;;
41903;SDS011;27586;51.124;4.182;2023-05-10T09:52:08;20.85;;;15.80;;
41903;SDS011;27586;51.124;4.182;2023-05-10T09:54:34;23.02;;;16.23;;
41903;SDS011;27586;51.124;4.182;2023-05-10T09:57:01;23.67;;;15.98;;
41903;SDS011;27586;51.124;4.182;2023-05-10T09:59:27;20.75;;;16.08;;
41903;SDS011;27586;51.124;4.182;2023-05-10T10:01:57;19.38;;;14.40;;
41903;SDS011;27586;51.124;4.182;2023-05-10T10:04:24;20.88;;;14.90;;
41903;SDS011;27586;51.124;4.182;2023-05-10T10:07:00;19.52;;;14.55;;
41903;SDS011;27586;51.124;4.182;2023-05-10T10:09:29;18.95;;;13.95;;
41903;SDS011;27586;51.124;4.182;2023-05-10T10:11:55;22.27;;;14.45;;
41903;SDS011;27586;51.124;4.182;2023-05-10T10:14:22;19.83;;;14.50;;
41903;SDS011;27586;51.124;4.182;2023-05-10T10:16:49;18.48;;;13.57;;
41903;SDS011;27586;51.124;4.182;2023-05-10T10:19:16;17.67;;;13.82;;
41903;SDS011;27586;51.124;4.182;2023-05-10T10:21:43;16.50;;;13.35;;
41903;SDS011;27586;51.124;4.182;2023-05-10T10:24:09;17.20;;;13.00;;
41903;SDS011;27586;51.124;4.182;2023-05-10T10:26:35;15.15;;;12.48;;
41903;SDS011;27586;51.124;4.182;2023-05-10T10:34:31;19.15;;;13.13;;
41903;SDS011;27586;51.124;4.182;2023-05-10T10:36:57;17.35;;;13.65;;
41903;SDS011;27586;51.124;4.182;2023-05-10T10:39:28;19.25;;;12.55;;
41903;SDS011;27586;51.124;4.182;2023-05-10T10:41:55;19.13;;;12.45;;
41903;SDS011;27586;51.124;4.182;2023-05-10T10:55:08;15.50;;;11.88;;
41903;SDS011;27586;51.124;4.182;2023-05-10T10:57:52;14.05;;;11.40;;
41903;SDS011;27586;51.124;4.182;2023-05-10T11:03:08;13.25;;;11.43;;
41903;SDS011;27586;51.124;4.182;2023-05-10T11:05:42;17.05;;;12.20;;
41903;SDS011;27586;51.124;4.182;2023-05-10T11:13:34;14.50;;;11.02;;
41903;SDS011;27586;51.124;4.182;2023-05-10T11:16:12;13.48;;;11.25;;
41903;SDS011;27586;51.124;4.182;2023-05-10T11:18:53;14.50;;;12.00;;
41903;SDS011;27586;51.124;4.182;2023-05-10T11:21:22;16.67;;;10.82;;
41903;SDS011;27586;51.124;4.182;2023-05-10T11:23:55;14.65;;;10.63;;
41903;SDS011;27586;51.124;4.182;2023-05-10T11:26:22;14.73;;;11.30;;
41903;SDS011;27586;51.124;4.182;2023-05-10T11:28:50;12.38;;;11.07;;
41903;SDS011;27586;51.124;4.182;2023-05-10T11:31:20;11.65;;;10.07;;
41903;SDS011;27586;51.124;4.182;2023-05-10T11:33:50;10.93;;;9.70;;
41903;SDS011;27586;51.124;4.182;2023-05-10T11:38:44;15.93;;;10.73;;
41903;SDS011;27586;51.124;4.182;2023-05-10T11:41:10;13.90;;;11.20;;
41903;SDS011;27586;51.124;4.182;2023-05-10T11:43:38;14.43;;;10.63;;
41903;SDS011;27586;51.124;4.182;2023-05-10T11:46:06;13.20;;;10.50;;
41903;SDS011;27586;51.124;4.182;2023-05-10T11:48:36;12.70;;;10.43;;
41903;SDS011;27586;51.124;4.182;2023-05-10T11:51:06;16.25;;;10.32;;
41903;SDS011;27586;51.124;4.182;2023-05-10T11:53:35;12.18;;;9.90;;
41903;SDS011;27586;51.124;4.182;2023-05-10T11:56:06;12.18;;;10.27;;
41903;SDS011;27586;51.124;4.182;2023-05-10T11:58:33;14.88;;;10.50;;
41903;SDS011;27586;51.124;4.182;2023-05-10T12:01:00;11.43;;;10.10;;
41903;SDS011;27586;51.124;4.182;2023-05-10T12:03:27;15.13;;;10.63;;
41903;SDS011;27586;51.124;4.182;2023-05-10T12:05:53;11.88;;;10.13;;
41903;SDS011;27586;51.124;4.182;2023-05-10T12:08:23;13.38;;;9.45;;
41903;SDS011;27586;51.124;4.182;2023-05-10T12:10:51;12.52;;;10.10;;
41903;SDS011;27586;51.124;4.182;2023-05-10T12:13:19;11.40;;;10.15;;
41903;SDS011;27586;51.124;4.182;2023-05-10T12:15:45;11.57;;;10.48;;
41903;SDS011;27586;51.124;4.182;2023-05-10T12:18:11;12.57;;;11.27;;
41903;SDS011;27586;51.124;4.182;2023-05-10T12:20:38;13.15;;;10.98;;
41903;SDS011;27586;51.124;4.182;2023-05-10T12:23:05;12.63;;;10.45;;
41903;SDS011;27586;51.124;4.182;2023-05-10T12:25:33;12.38;;;10.48;;
41903;SDS011;27586;51.124;4.182;2023-05-10T12:28:00;12.52;;;11.10;;
41903;SDS011;27586;51.124;4.182;2023-05-10T12:30:29;12.55;;;10.48;;
41903;SDS011;27586;51.124;4.182;2023-05-10T12:33:03;14.27;;;10.50;;
41903;SDS011;27586;51.124;4.182;2023-05-10T12:35:46;13.45;;;10.90;;
41903;SDS011;27586;51.124;4.182;2023-05-10T12:38:29;15.93;;;10.98;;
41903;SDS011;27586;51.124;4.182;2023-05-10T12:41:07;12.60;;;11.13;;
41903;SDS011;27586;51.124;4.182;2023-05-10T12:43:34;13.85;;;10.57;;
41903;SDS011;27586;51.124;4.182;2023-05-10T12:46:10;14.95;;;10.85;;
41903;SDS011;27586;51.124;4.182;2023-05-10T12:48:38;14.15;;;10.98;;
41903;SDS011;27586;51.124;4.182;2023-05-10T12:51:04;12.95;;;10.85;;
41903;SDS011;27586;51.124;4.182;2023-05-10T12:53:33;13.38;;;11.32;;
41903;SDS011;27586;51.124;4.182;2023-05-10T12:55:59;12.13;;;10.68;;
41903;SDS011;27586;51.124;4.182;2023-05-10T12:58:25;13.88;;;12.38;;
41903;SDS011;27586;51.124;4.182;2023-05-10T13:00:50;12.73;;;11.43;;
41903;SDS011;27586;51.124;4.182;2023-05-10T13:03:17;13.68;;;11.90;;
41903;SDS011;27586;51.124;4.182;2023-05-10T13:05:42;13.50;;;11.98;;
41903;SDS011;27586;51.124;4.182;2023-05-10T13:08:08;13.68;;;12.13;;
41903;SDS011;27586;51.124;4.182;2023-05-10T13:10:34;15.45;;;13.20;;
41903;SDS011;27586;51.124;4.182;2023-05-10T13:13:00;16.75;;;13.55;;
41903;SDS011;27586;51.124;4.182;2023-05-10T13:15:26;17.27;;;12.60;;
41903;SDS011;27586;51.124;4.182;2023-05-10T13:17:52;15.32;;;12.90;;
41903;SDS011;27586;51.124;4.182;2023-05-10T13:20:18;14.63;;;12.40;;
41903;SDS011;27586;51.124;4.182;2023-05-10T13:22:44;12.68;;;11.38;;
41903;SDS011;27586;51.124;4.182;2023-05-10T13:25:10;16.55;;;12.77;;
41903;SDS011;27586;51.124;4.182;2023-05-10T13:27:36;15.23;;;13.10;;
41903;SDS011;27586;51.124;4.182;2023-05-10T13:30:02;15.05;;;13.48;;
41903;SDS011;27586;51.124;4.182;2023-05-10T13:32:29;15.07;;;13.48;;
41903;SDS011;27586;51.124;4.182;2023-05-10T13:34:55;16.42;;;14.60;;
41903;SDS011;27586;51.124;4.182;2023-05-10T13:37:21;15.75;;;13.35;;
41903;SDS011;27586;51.124;4.182;2023-05-10T13:39:47;15.55;;;13.27;;
41903;SDS011;27586;51.124;4.182;2023-05-10T13:42:12;14.57;;;12.95;;
41903;SDS011;27586;51.124;4.182;2023-05-10T13:44:38;14.52;;;13.02;;
41903;SDS011;27586;51.124;4.182;2023-05-10T13:47:05;16.70;;;13.93;;
41903;SDS011;27586;51.124;4.182;2023-05-10T13:49:30;15.23;;;13.45;;
41903;SDS011;27586;51.124;4.182;2023-05-10T13:51:56;16.23;;;13.80;;
41903;SDS011;27586;51.124;4.182;2023-05-10T13:54:23;14.70;;;13.18;;
41903;SDS011;27586;51.124;4.182;2023-05-10T13:56:49;15.05;;;12.63;;
41903;SDS011;27586;51.124;4.182;2023-05-10T13:59:15;15.75;;;13.80;;
41903;SDS011;27586;51.124;4.182;2023-05-10T14:01:41;14.95;;;13.32;;
41903;SDS011;27586;51.124;4.182;2023-05-10T14:04:07;14.98;;;13.38;;
41903;SDS011;27586;51.124;4.182;2023-05-10T14:06:36;18.35;;;12.77;;
41903;SDS011;27586;51.124;4.182;2023-05-10T14:09:02;15.18;;;13.32;;
41903;SDS011;27586;51.124;4.182;2023-05-10T14:11:28;14.45;;;12.68;;
41903;SDS011;27586;51.124;4.182;2023-05-10T14:13:54;15.10;;;13.45;;
41903;SDS011;27586;51.124;4.182;2023-05-10T14:16:20;15.18;;;13.57;;
41903;SDS011;27586;51.124;4.182;2023-05-10T14:18:46;13.82;;;11.95;;
41903;SDS011;27586;51.124;4.182;2023-05-10T14:21:12;15.38;;;10.50;;
41903;SDS011;27586;51.124;4.182;2023-05-10T14:23:38;14.88;;;11.00;;
41903;SDS011;27586;51.124;4.182;2023-05-10T14:26:03;18.33;;;10.05;;
41903;SDS011;27586;51.124;4.182;2023-05-10T14:28:29;18.15;;;11.40;;
41903;SDS011;27586;51.124;4.182;2023-05-10T14:30:55;17.67;;;11.30;;
41903;SDS011;27586;51.124;4.182;2023-05-10T14:33:21;18.05;;;11.25;;
41903;SDS011;27586;51.124;4.182;2023-05-10T14:35:47;17.67;;;12.18;;
41903;SDS011;27586;51.124;4.182;2023-05-10T14:38:13;21.00;;;12.60;;
41903;SDS011;27586;51.124;4.182;2023-05-10T14:40:39;15.57;;;12.52;;
41903;SDS011;27586;51.124;4.182;2023-05-10T14:43:05;23.17;;;13.43;;
41903;SDS011;27586;51.124;4.182;2023-05-10T14:45:30;17.90;;;13.95;;
41903;SDS011;27586;51.124;4.182;2023-05-10T14:47:56;16.95;;;12.88;;
41903;SDS011;27586;51.124;4.182;2023-05-10T14:50:22;15.82;;;12.40;;
41903;SDS011;27586;51.124;4.182;2023-05-10T14:52:48;16.17;;;11.05;;
41903;SDS011;27586;51.124;4.182;2023-05-10T14:55:14;14.20;;;11.10;;
41903;SDS011;27586;51.124;4.182;2023-05-10T14:57:40;12.82;;;11.23;;
41903;SDS011;27586;51.124;4.182;2023-05-10T15:00:06;11.55;;;10.18;;
41903;SDS011;27586;51.124;4.182;2023-05-10T15:02:32;11.23;;;9.63;;
41903;SDS011;27586;51.124;4.182;2023-05-10T15:04:58;9.65;;;8.65;;